createdAt,value
2022-08-17T00:01:00.640Z,15.78
2022-08-17T00:02:23.104Z,15.77
2022-08-17T00:03:29.572Z,15.77
2022-08-17T00:04:33.417Z,15.77
2022-08-17T00:05:41.594Z,15.77
2022-08-17T00:06:45.894Z,15.77
2022-08-17T00:07:51.959Z,15.76
2022-08-17T00:08:58.673Z,15.74
2022-08-17T00:10:02.205Z,15.73
2022-08-17T00:11:08.885Z,15.72
2022-08-17T00:12:41.997Z,15.73
2022-08-17T00:13:41.767Z,15.70
2022-08-17T00:14:46.401Z,15.65
2022-08-17T00:15:50.177Z,15.71
2022-08-17T00:16:57.069Z,15.69
2022-08-17T00:18:02.795Z,15.59
2022-08-17T00:19:09.516Z,15.50
2022-08-17T00:20:13.661Z,15.46
2022-08-17T00:21:25.200Z,15.44
2022-08-17T00:22:35.027Z,15.41
2022-08-17T00:23:44.322Z,15.39
2022-08-17T00:24:53.101Z,15.39
2022-08-17T00:25:56.222Z,15.38
2022-08-17T00:26:59.616Z,15.39
2022-08-17T00:28:03.073Z,15.38
2022-08-17T00:29:07.809Z,15.38
2022-08-17T00:30:15.301Z,15.38
2022-08-17T00:31:18.907Z,15.36
2022-08-17T00:33:10.957Z,15.36
2022-08-17T00:33:45.749Z,15.33
2022-08-17T00:34:48.937Z,15.32
2022-08-17T00:35:55.733Z,15.30
2022-08-17T00:36:58.881Z,15.27
2022-08-17T00:38:02.075Z,15.26
2022-08-17T00:39:05.764Z,15.24
2022-08-17T00:40:12.734Z,15.23
2022-08-17T00:41:19.787Z,15.21
2022-08-17T00:42:26.416Z,15.19
2022-08-17T00:43:41.136Z,15.18
2022-08-17T00:44:46.594Z,15.17
2022-08-17T00:45:49.869Z,15.17
2022-08-17T00:46:57.545Z,15.17
2022-08-17T00:48:01.013Z,15.18
2022-08-17T00:49:06.506Z,15.18
2022-08-17T00:50:12.607Z,15.17
2022-08-17T00:51:27.697Z,15.15
2022-08-17T00:52:36.323Z,15.13
2022-08-17T00:53:43.927Z,15.12
2022-08-17T00:54:52.553Z,15.11
2022-08-17T00:55:56.049Z,15.11
2022-08-17T00:57:04.987Z,15.11
2022-08-17T00:58:08.609Z,15.10
2022-08-17T00:59:15.865Z,15.10
2022-08-17T01:00:27.366Z,15.09
2022-08-17T01:01:32.241Z,15.10
2022-08-17T01:02:43.005Z,15.10
2022-08-17T01:03:46.458Z,15.10
2022-08-17T01:04:53.112Z,15.08
2022-08-17T01:06:00.657Z,15.07
2022-08-17T01:07:06.440Z,15.07
2022-08-17T01:08:16.165Z,15.05
2022-08-17T01:09:20.062Z,15.06
2022-08-17T01:10:58.557Z,15.06
2022-08-17T01:11:55.016Z,15.07
2022-08-17T01:13:00.325Z,15.07
2022-08-17T01:14:04.291Z,15.09
2022-08-17T01:15:08.045Z,15.10
2022-08-17T01:16:16.097Z,15.09
2022-08-17T01:17:19.522Z,15.08
2022-08-17T01:18:23.190Z,15.06
2022-08-17T01:19:30.641Z,15.06
2022-08-17T01:20:47.531Z,15.05
2022-08-17T01:21:51.849Z,15.04
2022-08-17T01:22:55.221Z,15.02
2022-08-17T01:23:59.727Z,15.02
2022-08-17T01:25:08.283Z,15.01
2022-08-17T01:26:11.592Z,15.00
2022-08-17T01:27:18.321Z,15.00
2022-08-17T01:28:52.372Z,14.99
2022-08-17T01:29:58.145Z,14.96
2022-08-17T01:31:06.565Z,14.96
2022-08-17T01:32:10.435Z,14.95
2022-08-17T01:33:13.905Z,14.95
2022-08-17T01:34:25.111Z,14.93
2022-08-17T01:35:57.617Z,14.92
2022-08-17T01:37:23.798Z,14.92
2022-08-17T01:39:10.167Z,14.89
2022-08-17T01:40:43.361Z,14.84
2022-08-17T01:42:03.740Z,14.82
2022-08-17T01:43:50.928Z,14.80
2022-08-17T01:45:15.310Z,14.74
2022-08-17T01:46:28.883Z,14.78
2022-08-17T01:47:32.660Z,14.78
2022-08-17T01:48:39.471Z,14.78
2022-08-17T01:49:42.600Z,14.76
2022-08-17T01:50:48.101Z,14.78
2022-08-17T01:51:51.969Z,14.77
2022-08-17T01:53:05.578Z,14.75
2022-08-17T01:54:15.280Z,14.73
2022-08-17T01:55:27.320Z,14.72
2022-08-17T01:56:33.015Z,14.71
2022-08-17T01:57:36.706Z,14.70
2022-08-17T01:58:44.191Z,14.70
2022-08-17T01:59:50.130Z,14.70
2022-08-17T02:01:00.939Z,14.68
2022-08-17T02:02:07.543Z,14.68
2022-08-17T02:03:10.981Z,14.67
2022-08-17T02:04:15.039Z,14.66
2022-08-17T02:05:18.636Z,14.64
2022-08-17T02:06:27.569Z,14.66
2022-08-17T02:07:31.334Z,14.66
2022-08-17T02:08:38.998Z,14.66
2022-08-17T02:09:59.480Z,14.66
2022-08-17T02:11:11.159Z,14.66
2022-08-17T02:12:37.900Z,14.65
2022-08-17T02:13:38.313Z,14.64
2022-08-17T02:14:41.777Z,14.63
2022-08-17T02:15:45.391Z,14.63
2022-08-17T02:16:48.589Z,14.63
2022-08-17T02:17:54.738Z,14.63
2022-08-17T02:18:58.025Z,14.62
2022-08-17T02:20:01.911Z,14.61
2022-08-17T02:21:06.029Z,14.60
2022-08-17T02:22:09.471Z,14.61
2022-08-17T02:23:15.887Z,14.59
2022-08-17T02:24:59.440Z,14.59
2022-08-17T02:25:59.255Z,14.58
2022-08-17T02:27:02.439Z,14.58
2022-08-17T02:28:05.827Z,14.59
2022-08-17T02:29:09.158Z,14.60
2022-08-17T02:30:59.851Z,14.58
2022-08-17T02:31:38.106Z,14.59
2022-08-17T02:32:41.535Z,14.58
2022-08-17T02:33:44.630Z,14.58
2022-08-17T02:35:01.349Z,14.57
2022-08-17T02:36:06.782Z,14.56
2022-08-17T02:37:10.058Z,14.55
2022-08-17T02:38:13.517Z,14.53
2022-08-17T02:39:16.718Z,14.52
2022-08-17T02:40:36.232Z,14.50
2022-08-17T02:41:41.098Z,14.47
2022-08-17T02:42:45.713Z,14.46
2022-08-17T02:43:49.116Z,14.46
2022-08-17T02:44:52.347Z,14.45
2022-08-17T02:45:55.783Z,14.45
2022-08-17T02:46:59.069Z,14.41
2022-08-17T02:48:03.316Z,14.41
2022-08-17T02:49:06.572Z,14.41
2022-08-17T02:50:12.003Z,14.39
2022-08-17T02:51:15.551Z,14.40
2022-08-17T02:52:43.055Z,14.40
2022-08-17T02:53:45.015Z,14.40
2022-08-17T02:54:48.515Z,14.40
2022-08-17T02:55:52.013Z,14.41
2022-08-17T02:56:55.819Z,14.41
2022-08-17T02:58:04.036Z,14.38
2022-08-17T02:59:07.366Z,14.39
2022-08-17T03:00:14.586Z,14.37
2022-08-17T03:01:22.389Z,14.37
2022-08-17T03:02:25.842Z,14.37
2022-08-17T03:03:29.041Z,14.37
2022-08-17T03:04:34.887Z,14.35
2022-08-17T03:05:39.908Z,14.32
2022-08-17T03:06:43.098Z,14.30
2022-08-17T03:07:46.261Z,14.29
2022-08-17T03:08:49.632Z,14.28
2022-08-17T03:09:54.116Z,14.26
2022-08-17T03:10:57.583Z,14.25
2022-08-17T03:12:09.783Z,14.23
2022-08-17T03:13:16.340Z,14.17
2022-08-17T03:14:28.533Z,14.18
2022-08-17T03:15:34.173Z,14.16
2022-08-17T03:16:37.420Z,14.16
2022-08-17T03:17:42.835Z,14.15
2022-08-17T03:18:46.458Z,14.13
2022-08-17T03:19:49.979Z,14.13
2022-08-17T03:20:59.756Z,14.12
2022-08-17T03:22:35.327Z,14.10
2022-08-17T03:23:29.634Z,14.06
2022-08-17T03:24:33.820Z,14.05
2022-08-17T03:25:43.363Z,14.04
2022-08-17T03:26:47.467Z,14.03
2022-08-17T03:27:52.159Z,14.01
2022-08-17T03:28:55.441Z,13.99
2022-08-17T03:29:58.935Z,13.98
2022-08-17T03:31:03.209Z,13.96
2022-08-17T03:32:13.975Z,13.95
2022-08-17T03:33:17.663Z,13.94
2022-08-17T03:34:20.820Z,13.92
2022-08-17T03:35:26.856Z,13.92
2022-08-17T03:36:30.052Z,13.92
2022-08-17T03:37:39.448Z,13.91
2022-08-17T03:38:42.575Z,13.90
2022-08-17T03:39:48.326Z,13.90
2022-08-17T03:40:57.135Z,13.90
2022-08-17T03:42:31.929Z,13.90
2022-08-17T03:43:36.019Z,13.84
2022-08-17T03:44:39.736Z,13.83
2022-08-17T03:46:02.166Z,13.83
2022-08-17T03:47:24.437Z,13.81
2022-08-17T03:48:46.203Z,13.80
2022-08-17T03:50:08.262Z,13.78
2022-08-17T03:51:41.790Z,13.75
2022-08-17T03:53:09.497Z,13.77
2022-08-17T03:54:31.165Z,13.71
2022-08-17T03:55:53.178Z,13.72
2022-08-17T03:57:09.046Z,13.72
2022-08-17T03:58:12.247Z,13.73
2022-08-17T03:59:22.248Z,13.73
2022-08-17T04:00:27.883Z,13.74
2022-08-17T04:01:31.273Z,13.75
2022-08-17T04:02:35.007Z,13.76
2022-08-17T04:03:38.132Z,13.77
2022-08-17T04:04:41.314Z,13.78
2022-08-17T04:05:44.915Z,13.79
2022-08-17T04:06:48.571Z,13.79
2022-08-17T04:07:52.011Z,13.80
2022-08-17T04:08:59.199Z,13.81
2022-08-17T04:10:05.103Z,13.80
2022-08-17T04:11:08.438Z,13.80
2022-08-17T04:12:11.836Z,13.80
2022-08-17T04:13:15.128Z,13.81
2022-08-17T04:14:27.471Z,13.82
2022-08-17T04:15:34.172Z,13.82
2022-08-17T04:16:37.583Z,13.82
2022-08-17T04:17:41.646Z,13.83
2022-08-17T04:18:45.058Z,13.83
2022-08-17T04:19:48.251Z,13.82
2022-08-17T04:20:51.576Z,13.81
2022-08-17T04:21:54.877Z,13.81
2022-08-17T04:23:32.955Z,13.80
2022-08-17T04:24:38.933Z,13.76
2022-08-17T04:25:44.997Z,13.77
2022-08-17T04:26:52.547Z,13.79
2022-08-17T04:28:02.155Z,13.82
2022-08-17T04:29:05.609Z,13.83
2022-08-17T04:30:09.786Z,13.84
2022-08-17T04:31:14.345Z,13.84
2022-08-17T04:33:00.608Z,13.83
2022-08-17T04:33:48.496Z,13.80
2022-08-17T04:34:51.638Z,13.78
2022-08-17T04:35:58.625Z,13.79
2022-08-17T04:37:04.006Z,13.79
2022-08-17T04:38:10.428Z,13.79
2022-08-17T04:39:13.614Z,13.71
2022-08-17T04:40:37.221Z,13.79
2022-08-17T04:42:01.090Z,13.79
2022-08-17T04:43:19.581Z,13.82
2022-08-17T04:44:28.365Z,13.83
2022-08-17T04:45:55.579Z,13.86
2022-08-17T04:47:00.518Z,13.87
2022-08-17T04:48:07.388Z,13.88
2022-08-17T04:49:12.011Z,13.90
2022-08-17T04:50:15.415Z,13.92
2022-08-17T04:51:54.510Z,13.95
2022-08-17T04:52:59.818Z,13.90
2022-08-17T04:54:07.288Z,13.92
2022-08-17T04:55:11.910Z,13.92
2022-08-17T04:56:19.027Z,13.94
2022-08-17T04:57:22.347Z,13.97
2022-08-17T04:58:25.545Z,14.00
2022-08-17T04:59:28.656Z,14.02
2022-08-17T05:00:36.179Z,14.03
2022-08-17T05:01:47.514Z,14.04
2022-08-17T05:02:55.934Z,14.05
2022-08-17T05:04:21.466Z,14.07
2022-08-17T05:05:33.957Z,14.03
2022-08-17T05:06:37.613Z,14.12
2022-08-17T05:07:40.896Z,14.15
2022-08-17T05:08:44.224Z,14.18
2022-08-17T05:09:47.497Z,14.20
2022-08-17T05:10:51.039Z,14.21
2022-08-17T05:11:55.292Z,14.18
2022-08-17T05:13:08.630Z,14.23
2022-08-17T05:14:13.703Z,14.22
2022-08-17T05:15:16.940Z,14.25
2022-08-17T05:16:24.546Z,14.27
2022-08-17T05:17:27.836Z,14.29
2022-08-17T05:18:32.293Z,14.31
2022-08-17T05:19:35.756Z,14.33
2022-08-17T05:20:41.714Z,14.35
2022-08-17T05:21:45.105Z,14.38
2022-08-17T05:23:10.810Z,14.40
2022-08-17T05:24:40.795Z,14.42
2022-08-17T05:25:45.655Z,14.46
2022-08-17T05:26:51.083Z,14.48
2022-08-17T05:27:56.052Z,14.51
2022-08-17T05:29:02.438Z,14.55
2022-08-17T05:30:06.980Z,14.59
2022-08-17T05:31:11.300Z,14.63
2022-08-17T05:32:39.571Z,14.67
2022-08-17T05:33:44.544Z,14.72
2022-08-17T05:34:49.685Z,14.74
2022-08-17T05:35:56.297Z,14.78
2022-08-17T05:37:02.462Z,14.83
2022-08-17T05:38:14.469Z,14.88
2022-08-17T05:39:17.601Z,14.87
2022-08-17T05:40:22.214Z,14.92
2022-08-17T05:41:25.868Z,14.97
2022-08-17T05:42:29.297Z,15.01
2022-08-17T05:43:38.575Z,15.05
2022-08-17T05:44:41.832Z,15.10
2022-08-17T05:45:55.157Z,15.15
2022-08-17T05:47:00.181Z,15.21
2022-08-17T05:48:03.945Z,15.23
2022-08-17T05:49:11.238Z,15.30
2022-08-17T05:50:26.975Z,15.35
2022-08-17T05:52:18.837Z,15.40
2022-08-17T05:54:01.042Z,15.43
2022-08-17T05:55:21.379Z,15.49
2022-08-17T05:57:04.552Z,15.56
2022-08-17T05:58:35.480Z,15.62
2022-08-17T05:59:58.313Z,15.69
2022-08-17T06:01:12.753Z,15.75
2022-08-17T06:02:48.037Z,15.81
2022-08-17T06:04:23.383Z,15.88
2022-08-17T06:05:29.795Z,15.94
2022-08-17T06:06:40.024Z,16.00
2022-08-17T06:07:54.699Z,16.07
2022-08-17T06:09:33.694Z,16.13
2022-08-17T06:10:48.024Z,16.19
2022-08-17T06:12:03.943Z,16.28
2022-08-17T06:13:39.129Z,16.35
2022-08-17T06:14:52.269Z,16.44
2022-08-17T06:16:28.300Z,16.41
2022-08-17T06:17:37.854Z,16.59
2022-08-17T06:18:58.083Z,16.63
2022-08-17T06:20:10.698Z,16.71
2022-08-17T06:21:18.444Z,16.77
2022-08-17T06:22:33.671Z,16.81
2022-08-17T06:23:41.928Z,16.90
2022-08-17T06:25:01.271Z,16.95
2022-08-17T06:26:41.059Z,17.03
2022-08-17T06:27:55.904Z,17.12
2022-08-17T06:29:03.746Z,17.16
2022-08-17T06:30:25.101Z,17.26
2022-08-17T06:31:39.227Z,17.33
2022-08-17T06:32:45.469Z,17.39
2022-08-17T06:33:49.571Z,17.46
2022-08-17T06:34:53.877Z,17.51
2022-08-17T06:36:37.725Z,17.56
2022-08-17T06:37:59.675Z,17.64
2022-08-17T06:39:02.859Z,17.72
2022-08-17T06:40:20.616Z,17.84
2022-08-17T06:41:31.712Z,18.18
2022-08-17T06:43:17.072Z,18.61
2022-08-17T06:44:43.421Z,19.26
2022-08-17T06:46:07.967Z,19.80
2022-08-17T06:47:28.717Z,20.20
2022-08-17T06:48:43.607Z,20.54
2022-08-17T06:49:55.532Z,20.76
2022-08-17T06:51:03.962Z,21.09
2022-08-17T06:52:45.777Z,21.29
2022-08-17T06:53:59.996Z,21.57
2022-08-17T06:55:18.001Z,21.75
2022-08-17T06:56:54.183Z,21.95
2022-08-17T06:58:15.615Z,22.23
2022-08-17T06:59:36.271Z,22.44
2022-08-17T07:00:58.725Z,22.67
2022-08-17T07:02:07.231Z,22.85
2022-08-17T07:03:21.292Z,23.03
2022-08-17T07:04:30.333Z,23.23
2022-08-17T07:05:53.968Z,23.41
2022-08-17T07:07:27.837Z,23.59
2022-08-17T07:09:06.991Z,23.74
2022-08-17T07:10:11.566Z,23.90
2022-08-17T07:11:22.542Z,23.98
2022-08-17T07:12:31.636Z,24.10
2022-08-17T07:14:03.059Z,24.20
2022-08-17T07:15:23.392Z,24.39
2022-08-17T07:16:41.322Z,24.53
2022-08-17T07:17:48.412Z,24.69
2022-08-17T07:18:53.529Z,24.83
2022-08-17T07:20:10.438Z,24.99
2022-08-17T07:21:41.003Z,25.13
2022-08-17T07:22:57.238Z,25.25
2022-08-17T07:24:47.445Z,25.38
2022-08-17T07:25:50.894Z,25.56
2022-08-17T07:27:17.691Z,25.71
2022-08-17T07:28:23.431Z,25.87
2022-08-17T07:29:27.387Z,25.98
2022-08-17T07:30:46.822Z,26.09
2022-08-17T07:31:51.158Z,26.26
2022-08-17T07:33:04.056Z,26.39
2022-08-17T07:34:15.076Z,26.53
2022-08-17T07:35:31.217Z,26.66
2022-08-17T07:36:42.803Z,26.80
2022-08-17T07:37:54.395Z,26.90
2022-08-17T07:38:58.483Z,26.98
2022-08-17T07:40:22.580Z,27.05
2022-08-17T07:41:26.856Z,27.21
2022-08-17T07:43:08.609Z,27.34
2022-08-17T07:44:18.894Z,27.46
2022-08-17T07:45:40.727Z,27.54
2022-08-17T07:47:13.700Z,27.68
2022-08-17T07:48:25.317Z,27.75
2022-08-17T07:49:31.695Z,27.64
2022-08-17T07:50:34.959Z,27.75
2022-08-17T07:51:43.707Z,27.87
2022-08-17T07:52:50.552Z,27.99
2022-08-17T07:54:13.561Z,28.16
2022-08-17T07:55:33.121Z,28.34
2022-08-17T07:57:03.742Z,28.56
2022-08-17T07:58:06.853Z,28.74
2022-08-17T07:59:14.633Z,28.81
2022-08-17T08:00:29.207Z,28.94
2022-08-17T08:01:41.579Z,29.10
2022-08-17T08:02:57.931Z,29.21
2022-08-17T08:04:01.306Z,29.41
2022-08-17T08:05:13.457Z,29.57
2022-08-17T08:06:26.629Z,29.61
2022-08-17T08:07:35.851Z,29.75
2022-08-17T08:08:43.971Z,29.84
2022-08-17T08:10:07.066Z,29.92
2022-08-17T08:11:15.793Z,29.95
2022-08-17T08:12:37.453Z,30.00
2022-08-17T08:13:44.015Z,29.98
2022-08-17T08:15:07.994Z,29.94
2022-08-17T08:16:29.398Z,29.91
2022-08-17T08:17:46.404Z,29.91
2022-08-17T08:18:57.361Z,29.92
2022-08-17T08:20:37.874Z,29.91
2022-08-17T08:21:34.551Z,30.06
2022-08-17T08:23:00.752Z,30.12
2022-08-17T08:24:30.176Z,30.07
2022-08-17T08:26:13.156Z,30.08
2022-08-17T08:27:50.586Z,30.13
2022-08-17T08:29:29.608Z,30.19
2022-08-17T08:30:40.937Z,30.20
2022-08-17T08:32:09.810Z,30.27
2022-08-17T08:33:48.577Z,30.36
2022-08-17T08:35:14.180Z,30.39
2022-08-17T08:37:14.243Z,30.43
2022-08-17T08:38:34.714Z,30.53
2022-08-17T08:39:51.269Z,30.48
2022-08-17T08:41:22.665Z,30.49
2022-08-17T08:42:38.656Z,30.54
2022-08-17T08:44:19.773Z,30.56
2022-08-17T08:45:34.246Z,30.58
2022-08-17T08:46:44.296Z,30.67
2022-08-17T08:48:06.025Z,30.83
2022-08-17T08:50:09.500Z,30.87
2022-08-17T08:51:29.456Z,30.82
2022-08-17T08:52:52.137Z,30.72
2022-08-17T08:54:27.034Z,30.81
2022-08-17T08:55:50.877Z,30.80
2022-08-17T08:57:25.642Z,30.85
2022-08-17T08:59:01.847Z,30.80
2022-08-17T09:00:13.414Z,30.70
2022-08-17T09:01:42.542Z,30.65
2022-08-17T09:03:06.921Z,30.64
2022-08-17T09:04:25.409Z,30.64
2022-08-17T09:06:00.587Z,30.67
2022-08-17T09:07:26.088Z,30.67
2022-08-17T09:08:32.550Z,30.71
2022-08-17T09:09:55.143Z,30.72
2022-08-17T09:11:23.339Z,30.79
2022-08-17T09:12:57.953Z,30.87
2022-08-17T09:14:21.332Z,30.94
2022-08-17T09:15:30.130Z,31.07
2022-08-17T09:17:03.085Z,31.26
2022-08-17T09:18:59.844Z,31.44
2022-08-17T09:20:02.543Z,31.47
2022-08-17T09:21:27.313Z,31.57
2022-08-17T09:22:56.922Z,31.60
2022-08-17T09:24:21.046Z,31.70
2022-08-17T09:25:31.727Z,31.64
2022-08-17T09:26:39.680Z,31.66
2022-08-17T09:27:53.838Z,31.68
2022-08-17T09:29:05.955Z,31.70
2022-08-17T09:30:12.336Z,31.77
2022-08-17T09:31:21.803Z,31.87
2022-08-17T09:32:33.967Z,32.00
2022-08-17T09:33:48.719Z,32.17
2022-08-17T09:34:56.321Z,32.31
2022-08-17T09:36:41.150Z,32.22
2022-08-17T09:38:18.418Z,32.13
2022-08-17T09:39:42.207Z,32.08
2022-08-17T09:41:06.871Z,32.18
2022-08-17T09:42:30.110Z,32.17
2022-08-17T09:43:59.441Z,32.36
2022-08-17T09:45:08.522Z,32.54
2022-08-17T09:46:29.011Z,32.67
2022-08-17T09:47:45.594Z,32.79
2022-08-17T09:48:59.034Z,32.89
2022-08-17T09:50:11.782Z,32.92
2022-08-17T09:51:36.470Z,32.85
2022-08-17T09:52:42.222Z,32.84
2022-08-17T09:53:45.409Z,32.85
2022-08-17T09:54:51.869Z,32.89
2022-08-17T09:56:16.677Z,32.93
2022-08-17T09:57:37.806Z,32.90
2022-08-17T09:59:14.102Z,32.91
2022-08-17T10:00:25.433Z,32.91
2022-08-17T10:01:40.294Z,33.00
2022-08-17T10:02:57.189Z,33.13
2022-08-17T10:04:09.587Z,33.16
2022-08-17T10:05:33.579Z,33.12
2022-08-17T10:07:03.693Z,33.08
2022-08-17T10:08:32.332Z,33.03
2022-08-17T10:09:48.681Z,33.01
2022-08-17T10:10:59.203Z,33.01
2022-08-17T10:12:29.921Z,33.05
2022-08-17T10:13:53.108Z,33.15
2022-08-17T10:15:15.831Z,33.17
2022-08-17T10:16:38.581Z,33.20
2022-08-17T10:18:04.270Z,33.23
2022-08-17T10:19:20.831Z,33.28
2022-08-17T10:20:30.428Z,33.41
2022-08-17T10:22:00.653Z,33.47
2022-08-17T10:23:36.363Z,33.50
2022-08-17T10:25:22.732Z,33.52
2022-08-17T10:26:54.176Z,33.61
2022-08-17T10:28:10.696Z,33.85
2022-08-17T10:29:46.207Z,34.00
2022-08-17T10:31:23.464Z,34.14
2022-08-17T10:32:39.970Z,34.23
2022-08-17T10:34:25.463Z,34.36
2022-08-17T10:35:41.210Z,34.57
2022-08-17T10:36:54.887Z,34.52
2022-08-17T10:38:17.031Z,34.47
2022-08-17T10:39:33.268Z,34.37
2022-08-17T10:40:52.294Z,34.32
2022-08-17T10:42:03.382Z,34.24
2022-08-17T10:43:41.968Z,34.30
2022-08-17T10:44:57.587Z,34.48
2022-08-17T10:46:40.479Z,34.56
2022-08-17T10:48:22.922Z,34.62
2022-08-17T10:49:29.861Z,34.75
2022-08-17T10:50:46.507Z,34.92
2022-08-17T10:51:59.474Z,35.12
2022-08-17T10:53:02.902Z,35.17
2022-08-17T10:54:27.292Z,35.12
2022-08-17T10:55:30.581Z,34.93
2022-08-17T10:56:47.005Z,34.90
2022-08-17T10:57:51.003Z,34.97
2022-08-17T10:58:59.040Z,34.98
2022-08-17T11:00:28.725Z,35.08
2022-08-17T11:01:34.979Z,35.17
2022-08-17T11:02:52.317Z,35.20
2022-08-17T11:04:01.521Z,35.16
2022-08-17T11:05:22.609Z,35.33
2022-08-17T11:06:32.519Z,35.41
2022-08-17T11:07:35.786Z,35.42
2022-08-17T11:09:05.634Z,35.56
2022-08-17T11:10:27.800Z,35.61
2022-08-17T11:12:02.973Z,35.72
2022-08-17T11:13:28.151Z,35.74
2022-08-17T11:14:55.653Z,35.70
2022-08-17T11:16:32.864Z,35.57
2022-08-17T11:18:10.858Z,35.60
2022-08-17T11:19:51.095Z,35.70
2022-08-17T11:21:21.248Z,35.91
2022-08-17T11:23:02.056Z,35.99
2022-08-17T11:24:16.846Z,35.98
2022-08-17T11:25:31.903Z,36.00
2022-08-17T11:26:37.653Z,36.05
2022-08-17T11:27:41.673Z,36.15
2022-08-17T11:28:52.477Z,36.23
2022-08-17T11:30:09.802Z,36.30
2022-08-17T11:31:40.204Z,36.27
2022-08-17T11:32:54.554Z,36.09
2022-08-17T11:34:06.732Z,36.14
2022-08-17T11:35:12.958Z,36.22
2022-08-17T11:36:21.930Z,36.22
2022-08-17T11:37:44.461Z,36.08
2022-08-17T11:39:29.890Z,35.97
2022-08-17T11:41:01.311Z,36.04
2022-08-17T11:42:39.977Z,36.19
2022-08-17T11:44:03.860Z,36.30
2022-08-17T11:45:32.164Z,36.49
2022-08-17T11:47:17.033Z,36.81
2022-08-17T11:48:44.498Z,37.27
2022-08-17T11:50:12.583Z,37.77
2022-08-17T11:51:38.126Z,38.06
2022-08-17T11:52:46.089Z,38.30
2022-08-17T11:53:50.260Z,38.40
2022-08-17T11:54:53.396Z,38.51
2022-08-17T11:55:56.618Z,38.68
2022-08-17T11:57:21.649Z,38.89
2022-08-17T11:58:30.895Z,39.12
2022-08-17T11:59:34.773Z,39.31
2022-08-17T12:00:46.898Z,39.48
2022-08-17T12:01:50.006Z,39.65
2022-08-17T12:03:34.329Z,39.80
2022-08-17T12:04:37.572Z,40.07
2022-08-17T12:05:41.297Z,40.23
2022-08-17T12:06:49.042Z,40.31
2022-08-17T12:08:04.467Z,40.26
2022-08-17T12:09:31.274Z,40.24
2022-08-17T12:10:37.052Z,40.25
2022-08-17T12:12:18.645Z,40.28
2022-08-17T12:13:30.448Z,40.28
2022-08-17T12:15:09.419Z,40.34
2022-08-17T12:16:18.042Z,40.49
2022-08-17T12:17:41.272Z,40.56
2022-08-17T12:19:02.539Z,40.41
2022-08-17T12:20:11.829Z,40.45
2022-08-17T12:21:36.348Z,40.57
2022-08-17T12:22:53.846Z,40.55
2022-08-17T12:24:23.794Z,40.63
2022-08-17T12:25:56.997Z,40.79
2022-08-17T12:27:04.836Z,40.80
2022-08-17T12:28:29.523Z,40.95
2022-08-17T12:29:35.624Z,41.05
2022-08-17T12:30:50.453Z,40.96
2022-08-17T12:31:55.966Z,41.04
2022-08-17T12:32:59.222Z,41.10
2022-08-17T12:34:05.173Z,41.24
2022-08-17T12:35:39.183Z,41.31
2022-08-17T12:36:42.707Z,41.30
2022-08-17T12:37:49.171Z,41.36
2022-08-17T12:39:13.018Z,41.41
2022-08-17T12:40:26.680Z,41.39
2022-08-17T12:41:44.732Z,41.46
2022-08-17T12:43:18.546Z,41.37
2022-08-17T12:44:31.197Z,41.39
2022-08-17T12:45:39.627Z,41.48
2022-08-17T12:46:50.274Z,41.49
2022-08-17T12:48:09.530Z,41.51
2022-08-17T12:49:20.040Z,41.54
2022-08-17T12:50:28.941Z,41.62
2022-08-17T12:51:34.286Z,41.58
2022-08-17T12:52:40.476Z,41.73
2022-08-17T12:53:54.136Z,41.93
2022-08-17T12:54:59.887Z,42.04
2022-08-17T12:56:10.861Z,42.18
2022-08-17T12:57:17.830Z,42.29
2022-08-17T12:58:29.896Z,42.33
2022-08-17T12:59:33.491Z,42.37
2022-08-17T13:00:47.714Z,42.42
2022-08-17T13:01:51.482Z,42.51
2022-08-17T13:02:58.403Z,42.58
2022-08-17T13:04:01.551Z,42.65
2022-08-17T13:05:17.983Z,42.74
2022-08-17T13:06:33.396Z,42.84
2022-08-17T13:07:46.730Z,42.97
2022-08-17T13:08:50.331Z,43.09
2022-08-17T13:09:53.506Z,43.02
2022-08-17T13:11:09.592Z,42.91
2022-08-17T13:12:12.676Z,42.62
2022-08-17T13:13:25.454Z,42.29
2022-08-17T13:14:28.996Z,42.18
2022-08-17T13:15:44.334Z,42.24
2022-08-17T13:16:51.650Z,42.35
2022-08-17T13:17:58.572Z,42.40
2022-08-17T13:19:39.933Z,42.31
2022-08-17T13:20:53.762Z,42.24
2022-08-17T13:22:02.243Z,42.31
2022-08-17T13:23:12.476Z,42.39
2022-08-17T13:24:29.698Z,42.32
2022-08-17T13:25:42.064Z,42.38
2022-08-17T13:26:45.029Z,42.48
2022-08-17T13:27:52.487Z,42.66
2022-08-17T13:28:55.867Z,42.80
2022-08-17T13:30:03.255Z,42.94
2022-08-17T13:31:28.338Z,43.11
2022-08-17T13:32:42.993Z,43.17
2022-08-17T13:33:47.494Z,42.84
2022-08-17T13:35:14.952Z,42.52
2022-08-17T13:36:32.261Z,42.27
2022-08-17T13:37:37.429Z,41.97
2022-08-17T13:38:51.327Z,41.77
2022-08-17T13:39:57.302Z,41.52
2022-08-17T13:41:00.688Z,41.34
2022-08-17T13:42:32.611Z,41.25
2022-08-17T13:43:50.755Z,40.99
2022-08-17T13:44:56.385Z,40.76
2022-08-17T13:46:31.443Z,40.70
2022-08-17T13:47:37.428Z,40.62
2022-08-17T13:48:40.783Z,40.66
2022-08-17T13:49:48.828Z,40.79
2022-08-17T13:50:55.388Z,40.93
2022-08-17T13:52:01.006Z,41.10
2022-08-17T13:53:24.190Z,41.31
2022-08-17T13:54:29.622Z,41.57
2022-08-17T13:55:32.755Z,41.73
2022-08-17T13:56:50.235Z,41.90
2022-08-17T13:58:03.921Z,42.03
2022-08-17T13:59:16.837Z,42.17
2022-08-17T14:00:40.522Z,42.28
2022-08-17T14:01:52.785Z,42.39
2022-08-17T14:02:58.690Z,42.53
2022-08-17T14:04:17.632Z,42.63
2022-08-17T14:05:20.660Z,42.76
2022-08-17T14:06:53.128Z,42.82
2022-08-17T14:07:56.223Z,42.85
2022-08-17T14:08:59.431Z,42.88
2022-08-17T14:10:16.317Z,42.93
2022-08-17T14:11:20.185Z,42.97
2022-08-17T14:12:26.806Z,42.95
2022-08-17T14:13:29.892Z,43.03
2022-08-17T14:14:33.199Z,43.10
2022-08-17T14:15:54.830Z,43.16
2022-08-17T14:16:59.457Z,43.16
2022-08-17T14:18:02.678Z,43.19
2022-08-17T14:19:06.147Z,43.23
2022-08-17T14:20:12.285Z,43.23
2022-08-17T14:21:15.454Z,43.25
2022-08-17T14:22:23.904Z,43.28
2022-08-17T14:23:27.198Z,43.19
2022-08-17T14:24:44.026Z,43.07
2022-08-17T14:25:48.171Z,42.79
2022-08-17T14:26:54.792Z,42.55
2022-08-17T14:27:58.369Z,42.50
2022-08-17T14:29:02.254Z,42.40
2022-08-17T14:30:07.977Z,42.41
2022-08-17T14:31:11.896Z,42.27
2022-08-17T14:32:27.123Z,42.18
2022-08-17T14:33:30.257Z,42.17
2022-08-17T14:34:33.467Z,42.13
2022-08-17T14:35:47.587Z,42.18
2022-08-17T14:36:53.787Z,42.26
2022-08-17T14:37:57.313Z,42.29
2022-08-17T14:39:00.528Z,42.35
2022-08-17T14:40:08.231Z,42.39
2022-08-17T14:41:11.621Z,42.32
2022-08-17T14:42:15.728Z,42.28
2022-08-17T14:43:21.167Z,42.28
2022-08-17T14:44:24.515Z,42.30
2022-08-17T14:45:32.395Z,42.34
2022-08-17T14:46:36.414Z,42.36
2022-08-17T14:47:41.763Z,42.30
2022-08-17T14:48:44.897Z,42.17
2022-08-17T14:49:48.670Z,42.11
2022-08-17T14:50:51.818Z,42.06
2022-08-17T14:51:54.910Z,41.95
2022-08-17T14:52:58.303Z,41.77
2022-08-17T14:54:03.051Z,41.55
2022-08-17T14:55:08.235Z,41.38
2022-08-17T14:56:11.286Z,41.19
2022-08-17T14:57:24.762Z,40.94
2022-08-17T14:58:39.357Z,40.54
2022-08-17T14:59:42.797Z,40.15
2022-08-17T15:00:45.993Z,39.77
2022-08-17T15:01:49.103Z,39.46
2022-08-17T15:02:58.581Z,39.33
2022-08-17T15:04:01.877Z,39.22
2022-08-17T15:05:06.403Z,39.15
2022-08-17T15:06:12.825Z,38.97
2022-08-17T15:07:16.588Z,38.73
2022-08-17T15:08:19.990Z,38.51
2022-08-17T15:09:23.094Z,38.38
2022-08-17T15:10:28.168Z,38.23
2022-08-17T15:11:31.461Z,38.03
2022-08-17T15:12:35.081Z,37.82
2022-08-17T15:13:38.708Z,37.64
2022-08-17T15:14:57.248Z,37.38
2022-08-17T15:16:00.366Z,37.27
2022-08-17T15:17:05.943Z,37.21
2022-08-17T15:18:09.155Z,37.22
2022-08-17T15:19:12.499Z,37.18
2022-08-17T15:20:19.549Z,37.15
2022-08-17T15:21:22.812Z,37.21
2022-08-17T15:22:27.479Z,37.29
2022-08-17T15:23:35.474Z,37.40
2022-08-17T15:24:38.784Z,37.44
2022-08-17T15:25:42.622Z,37.49
2022-08-17T15:26:45.789Z,37.61
2022-08-17T15:27:49.268Z,37.71
2022-08-17T15:28:56.198Z,37.79
2022-08-17T15:29:59.441Z,37.83
2022-08-17T15:31:02.989Z,37.77
2022-08-17T15:32:08.738Z,37.66
2022-08-17T15:33:17.992Z,37.60
2022-08-17T15:34:21.103Z,37.53
2022-08-17T15:35:29.394Z,37.50
2022-08-17T15:36:33.628Z,37.40
2022-08-17T15:37:37.993Z,37.36
2022-08-17T15:38:44.446Z,37.37
2022-08-17T15:39:47.895Z,37.41
2022-08-17T15:40:55.048Z,37.40
2022-08-17T15:42:03.296Z,37.41